sensor_id;sensor_type;location;lat;lon;timestamp;temperature;humidity
8408;DHT22;4241;48.452;9.216;2023-07-20T00:06:27;20.50;99.90
8408;DHT22;4241;48.452;9.216;2023-07-20T00:08:54;20.40;99.90
8408;DHT22;4241;48.452;9.216;2023-07-20T00:13:50;20.60;99.90
8408;DHT22;4241;48.452;9.216;2023-07-20T00:23:38;20.50;99.90
8408;DHT22;4241;48.452;9.216;2023-07-20T00:28:32;20.40;99.90
8408;DHT22;4241;48.452;9.216;2023-07-20T00:31:00;20.30;99.90
8408;DHT22;4241;48.452;9.216;2023-07-20T00:33:28;20.40;99.90
8408;DHT22;4241;48.452;9.216;2023-07-20T00:38:22;20.20;99.90
8408;DHT22;4241;48.452;9.216;2023-07-20T00:40:49;20.10;99.90
8408;DHT22;4241;48.452;9.216;2023-07-20T00:43:16;20.10;99.90
8408;DHT22;4241;48.452;9.216;2023-07-20T00:45:43;20.00;99.90
8408;DHT22;4241;48.452;9.216;2023-07-20T00:48:13;20.10;99.90
8408;DHT22;4241;48.452;9.216;2023-07-20T00:50:41;20.10;99.90
8408;DHT22;4241;48.452;9.216;2023-07-20T00:53:08;19.90;99.90
8408;DHT22;4241;48.452;9.216;2023-07-20T00:55:36;20.00;99.90
8408;DHT22;4241;48.452;9.216;2023-07-20T00:58:03;20.00;99.90
8408;DHT22;4241;48.452;9.216;2023-07-20T01:02:57;20.10;99.90
8408;DHT22;4241;48.452;9.216;2023-07-20T01:05:31;19.80;99.90
8408;DHT22;4241;48.452;9.216;2023-07-20T01:08:02;20.00;99.90
8408;DHT22;4241;48.452;9.216;2023-07-20T01:10:36;20.00;99.90
8408;DHT22;4241;48.452;9.216;2023-07-20T01:13:06;20.20;99.90
8408;DHT22;4241;48.452;9.216;2023-07-20T01:15:34;20.00;99.90
8408;DHT22;4241;48.452;9.216;2023-07-20T01:20:32;19.80;99.90
8408;DHT22;4241;48.452;9.216;2023-07-20T01:23:22;19.90;99.90
8408;DHT22;4241;48.452;9.216;2023-07-20T01:26:07;19.90;99.90
8408;DHT22;4241;48.452;9.216;2023-07-20T01:28:53;19.80;99.90
8408;DHT22;4241;48.452;9.216;2023-07-20T01:31:28;19.70;99.90
8408;DHT22;4241;48.452;9.216;2023-07-20T01:33:58;19.70;99.90
8408;DHT22;4241;48.452;9.216;2023-07-20T01:36:29;19.70;99.90
8408;DHT22;4241;48.452;9.216;2023-07-20T01:41:24;19.70;99.90
8408;DHT22;4241;48.452;9.216;2023-07-20T01:43:51;19.50;99.90
8408;DHT22;4241;48.452;9.216;2023-07-20T01:48:46;19.70;99.90
8408;DHT22;4241;48.452;9.216;2023-07-20T01:51:13;19.70;99.90
8408;DHT22;4241;48.452;9.216;2023-07-20T02:01:01;19.50;99.90
8408;DHT22;4241;48.452;9.216;2023-07-20T02:05:56;19.60;99.90
8408;DHT22;4241;48.452;9.216;2023-07-20T02:08:24;19.40;99.90
8408;DHT22;4241;48.452;9.216;2023-07-20T02:10:51;19.50;99.90
8408;DHT22;4241;48.452;9.216;2023-07-20T02:13:18;19.40;99.90
8408;DHT22;4241;48.452;9.216;2023-07-20T02:15:45;19.50;99.90
8408;DHT22;4241;48.452;9.216;2023-07-20T02:18:12;19.50;99.90
8408;DHT22;4241;48.452;9.216;2023-07-20T02:20:40;19.50;99.90
8408;DHT22;4241;48.452;9.216;2023-07-20T02:23:09;20.20;99.90
8408;DHT22;4241;48.452;9.216;2023-07-20T02:25:38;19.50;99.90
8408;DHT22;4241;48.452;9.216;2023-07-20T02:28:07;19.60;99.90
8408;DHT22;4241;48.452;9.216;2023-07-20T02:30:37;19.40;99.90
8408;DHT22;4241;48.452;9.216;2023-07-20T02:33:04;19.40;99.90
8408;DHT22;4241;48.452;9.216;2023-07-20T02:37:59;19.40;99.90
8408;DHT22;4241;48.452;9.216;2023-07-20T02:40:27;19.20;99.90
8408;DHT22;4241;48.452;9.216;2023-07-20T02:42:54;19.30;99.90
8408;DHT22;4241;48.452;9.216;2023-07-20T02:50:15;19.20;99.90
8408;DHT22;4241;48.452;9.216;2023-07-20T02:55:09;19.30;99.90
8408;DHT22;4241;48.452;9.216;2023-07-20T02:57:37;19.20;99.90
8408;DHT22;4241;48.452;9.216;2023-07-20T03:00:05;19.20;99.90
8408;DHT22;4241;48.452;9.216;2023-07-20T03:04:59;19.00;99.90
8408;DHT22;4241;48.452;9.216;2023-07-20T03:07:28;19.00;99.90
8408;DHT22;4241;48.452;9.216;2023-07-20T03:14:51;18.80;99.90
8408;DHT22;4241;48.452;9.216;2023-07-20T03:17:18;18.80;99.90
8408;DHT22;4241;48.452;9.216;2023-07-20T03:19:46;18.70;99.90
8408;DHT22;4241;48.452;9.216;2023-07-20T03:29:35;18.80;99.90
8408;DHT22;4241;48.452;9.216;2023-07-20T03:32:03;18.60;99.90
8408;DHT22;4241;48.452;9.216;2023-07-20T03:46:47;18.60;99.90
8408;DHT22;4241;48.452;9.216;2023-07-20T03:49:15;18.50;99.90
8408;DHT22;4241;48.452;9.216;2023-07-20T03:54:09;18.60;99.90
8408;DHT22;4241;48.452;9.216;2023-07-20T03:59:03;18.60;99.90
8408;DHT22;4241;48.452;9.216;2023-07-20T04:06:30;18.40;99.90
8408;DHT22;4241;48.452;9.216;2023-07-20T04:08:57;18.50;99.90
8408;DHT22;4241;48.452;9.216;2023-07-20T04:11:24;18.40;99.90
8408;DHT22;4241;48.452;9.216;2023-07-20T04:16:18;18.40;99.90
8408;DHT22;4241;48.452;9.216;2023-07-20T04:23:41;18.50;99.90
8408;DHT22;4241;48.452;9.216;2023-07-20T04:31:11;18.40;99.90
8408;DHT22;4241;48.452;9.216;2023-07-20T04:33:38;18.30;99.90
8408;DHT22;4241;48.452;9.216;2023-07-20T04:38:32;18.50;99.90
8408;DHT22;4241;48.452;9.216;2023-07-20T04:41:01;18.50;99.90
8408;DHT22;4241;48.452;9.216;2023-07-20T04:43:29;18.50;99.90
8408;DHT22;4241;48.452;9.216;2023-07-20T04:48:24;18.50;99.90
8408;DHT22;4241;48.452;9.216;2023-07-20T04:50:51;18.50;99.90
8408;DHT22;4241;48.452;9.216;2023-07-20T04:53:18;18.50;99.90
8408;DHT22;4241;48.452;9.216;2023-07-20T04:55:48;18.50;99.90
8408;DHT22;4241;48.452;9.216;2023-07-20T04:58:19;18.50;99.90
8408;DHT22;4241;48.452;9.216;2023-07-20T05:00:47;18.60;99.90
8408;DHT22;4241;48.452;9.216;2023-07-20T05:03:14;18.60;99.90
8408;DHT22;4241;48.452;9.216;2023-07-20T05:08:08;18.80;99.90
8408;DHT22;4241;48.452;9.216;2023-07-20T05:13:02;18.70;99.90
8408;DHT22;4241;48.452;9.216;2023-07-20T05:15:32;18.70;99.90
8408;DHT22;4241;48.452;9.216;2023-07-20T05:17:59;18.90;99.90
8408;DHT22;4241;48.452;9.216;2023-07-20T05:20:26;18.90;99.90
8408;DHT22;4241;48.452;9.216;2023-07-20T05:32:44;19.20;99.90
8408;DHT22;4241;48.452;9.216;2023-07-20T05:35:13;19.20;99.90
8408;DHT22;4241;48.452;9.216;2023-07-20T05:37:41;19.30;99.90
8408;DHT22;4241;48.452;9.216;2023-07-20T05:40:08;19.30;99.90
8408;DHT22;4241;48.452;9.216;2023-07-20T05:42:37;19.30;99.90
8408;DHT22;4241;48.452;9.216;2023-07-20T05:45:05;19.50;99.90
8408;DHT22;4241;48.452;9.216;2023-07-20T05:50:01;19.50;99.90
8408;DHT22;4241;48.452;9.216;2023-07-20T05:57:23;19.60;99.90
8408;DHT22;4241;48.452;9.216;2023-07-20T06:04:45;19.60;99.90
8408;DHT22;4241;48.452;9.216;2023-07-20T06:07:13;19.60;99.90
8408;DHT22;4241;48.452;9.216;2023-07-20T06:09:40;19.80;99.90
8408;DHT22;4241;48.452;9.216;2023-07-20T06:12:08;19.60;99.90
8408;DHT22;4241;48.452;9.216;2023-07-20T06:14:35;19.80;99.90
8408;DHT22;4241;48.452;9.216;2023-07-20T06:17:02;19.80;99.90
8408;DHT22;4241;48.452;9.216;2023-07-20T06:19:28;19.80;99.90
8408;DHT22;4241;48.452;9.216;2023-07-20T06:21:55;19.80;99.90
8408;DHT22;4241;48.452;9.216;2023-07-20T06:24:23;19.90;99.90
8408;DHT22;4241;48.452;9.216;2023-07-20T06:26:50;20.00;99.90
8408;DHT22;4241;48.452;9.216;2023-07-20T06:31:44;20.20;99.90
8408;DHT22;4241;48.452;9.216;2023-07-20T06:36:38;20.20;99.90
8408;DHT22;4241;48.452;9.216;2023-07-20T06:39:05;20.10;99.90
8408;DHT22;4241;48.452;9.216;2023-07-20T06:41:33;20.20;99.90
8408;DHT22;4241;48.452;9.216;2023-07-20T06:46:27;20.20;99.90
8408;DHT22;4241;48.452;9.216;2023-07-20T06:51:22;20.40;99.90
8408;DHT22;4241;48.452;9.216;2023-07-20T06:53:49;20.50;99.90
8408;DHT22;4241;48.452;9.216;2023-07-20T06:58:44;20.70;99.90
8408;DHT22;4241;48.452;9.216;2023-07-20T07:01:11;20.90;99.90
8408;DHT22;4241;48.452;9.216;2023-07-20T07:03:38;21.00;99.90
8408;DHT22;4241;48.452;9.216;2023-07-20T07:13:26;21.40;99.90
8408;DHT22;4241;48.452;9.216;2023-07-20T07:15:54;21.60;99.90
8408;DHT22;4241;48.452;9.216;2023-07-20T07:20:52;22.00;99.90
8408;DHT22;4241;48.452;9.216;2023-07-20T07:23:19;22.10;99.90
8408;DHT22;4241;48.452;9.216;2023-07-20T07:25:46;22.20;99.90
8408;DHT22;4241;48.452;9.216;2023-07-20T07:28:13;22.30;99.90
8408;DHT22;4241;48.452;9.216;2023-07-20T07:30:40;22.40;99.90
8408;DHT22;4241;48.452;9.216;2023-07-20T07:33:09;22.60;99.90
8408;DHT22;4241;48.452;9.216;2023-07-20T07:38:03;22.90;99.90
8408;DHT22;4241;48.452;9.216;2023-07-20T07:40:30;23.00;99.90
8408;DHT22;4241;48.452;9.216;2023-07-20T07:45:23;22.90;99.90
8408;DHT22;4241;48.452;9.216;2023-07-20T07:47:50;23.00;99.90
8408;DHT22;4241;48.452;9.216;2023-07-20T07:50:18;22.80;98.90
8408;DHT22;4241;48.452;9.216;2023-07-20T07:52:46;22.80;99.30
8408;DHT22;4241;48.452;9.216;2023-07-20T07:55:12;22.80;99.90
8408;DHT22;4241;48.452;9.216;2023-07-20T08:00:10;22.90;97.30
8408;DHT22;4241;48.452;9.216;2023-07-20T08:02:40;23.10;99.10
8408;DHT22;4241;48.452;9.216;2023-07-20T08:05:08;23.30;99.90
8408;DHT22;4241;48.452;9.216;2023-07-20T08:07:36;23.30;99.80
8408;DHT22;4241;48.452;9.216;2023-07-20T08:10:04;23.40;98.10
8408;DHT22;4241;48.452;9.216;2023-07-20T08:12:31;23.30;95.00
8408;DHT22;4241;48.452;9.216;2023-07-20T08:19:53;23.60;96.70
8408;DHT22;4241;48.452;9.216;2023-07-20T08:22:20;23.70;93.00
8408;DHT22;4241;48.452;9.216;2023-07-20T08:24:48;23.90;95.00
8408;DHT22;4241;48.452;9.216;2023-07-20T08:27:15;24.20;94.10
8408;DHT22;4241;48.452;9.216;2023-07-20T08:29:41;24.20;90.20
8408;DHT22;4241;48.452;9.216;2023-07-20T08:34:36;24.40;86.40
8408;DHT22;4241;48.452;9.216;2023-07-20T08:37:03;24.70;87.90
8408;DHT22;4241;48.452;9.216;2023-07-20T08:42:00;24.80;89.10
8408;DHT22;4241;48.452;9.216;2023-07-20T08:44:30;24.80;86.50
8408;DHT22;4241;48.452;9.216;2023-07-20T08:46:59;24.90;86.50
8408;DHT22;4241;48.452;9.216;2023-07-20T08:49:28;25.00;87.60
8408;DHT22;4241;48.452;9.216;2023-07-20T08:51:55;25.10;82.60
8408;DHT22;4241;48.452;9.216;2023-07-20T08:54:22;25.10;82.10
8408;DHT22;4241;48.452;9.216;2023-07-20T08:56:50;24.90;85.50
8408;DHT22;4241;48.452;9.216;2023-07-20T08:59:18;24.70;82.50
8408;DHT22;4241;48.452;9.216;2023-07-20T09:01:47;24.70;86.20
8408;DHT22;4241;48.452;9.216;2023-07-20T09:04:14;24.60;82.50
8408;DHT22;4241;48.452;9.216;2023-07-20T09:06:42;24.90;88.10
8408;DHT22;4241;48.452;9.216;2023-07-20T09:11:36;25.10;83.10
8408;DHT22;4241;48.452;9.216;2023-07-20T09:14:04;25.10;81.40
8408;DHT22;4241;48.452;9.216;2023-07-20T09:16:47;25.00;80.80
8408;DHT22;4241;48.452;9.216;2023-07-20T09:19:15;24.90;81.90
8408;DHT22;4241;48.452;9.216;2023-07-20T09:21:44;24.90;79.70
8408;DHT22;4241;48.452;9.216;2023-07-20T09:24:12;24.90;79.30
8408;DHT22;4241;48.452;9.216;2023-07-20T09:26:41;24.80;77.40
8408;DHT22;4241;48.452;9.216;2023-07-20T09:29:08;24.80;78.00
8408;DHT22;4241;48.452;9.216;2023-07-20T09:31:37;25.50;79.90
8408;DHT22;4241;48.452;9.216;2023-07-20T09:34:04;25.10;80.20
8408;DHT22;4241;48.452;9.216;2023-07-20T09:36:33;25.40;78.80
8408;DHT22;4241;48.452;9.216;2023-07-20T09:39:01;25.50;76.00
8408;DHT22;4241;48.452;9.216;2023-07-20T09:41:29;25.40;73.20
8408;DHT22;4241;48.452;9.216;2023-07-20T09:43:56;25.60;73.70
8408;DHT22;4241;48.452;9.216;2023-07-20T09:46:23;25.80;73.60
8408;DHT22;4241;48.452;9.216;2023-07-20T09:48:54;25.90;72.40
8408;DHT22;4241;48.452;9.216;2023-07-20T09:51:28;25.90;70.30
8408;DHT22;4241;48.452;9.216;2023-07-20T09:53:55;26.20;73.90
8408;DHT22;4241;48.452;9.216;2023-07-20T09:56:24;26.50;73.70
8408;DHT22;4241;48.452;9.216;2023-07-20T09:58:51;26.60;72.00
8408;DHT22;4241;48.452;9.216;2023-07-20T10:01:20;26.60;72.40
8408;DHT22;4241;48.452;9.216;2023-07-20T10:03:49;26.20;69.60
8408;DHT22;4241;48.452;9.216;2023-07-20T10:06:23;26.00;73.10
8408;DHT22;4241;48.452;9.216;2023-07-20T10:08:53;26.00;70.90
8408;DHT22;4241;48.452;9.216;2023-07-20T10:11:22;25.70;73.60
8408;DHT22;4241;48.452;9.216;2023-07-20T10:13:53;25.60;71.90
8408;DHT22;4241;48.452;9.216;2023-07-20T10:16:35;25.50;71.30
8408;DHT22;4241;48.452;9.216;2023-07-20T10:19:05;25.20;71.80
8408;DHT22;4241;48.452;9.216;2023-07-20T10:21:37;25.00;73.30
8408;DHT22;4241;48.452;9.216;2023-07-20T10:24:07;25.00;73.80
8408;DHT22;4241;48.452;9.216;2023-07-20T10:26:34;25.10;73.90
8408;DHT22;4241;48.452;9.216;2023-07-20T10:29:01;24.90;69.40
8408;DHT22;4241;48.452;9.216;2023-07-20T10:31:29;24.70;71.40
8408;DHT22;4241;48.452;9.216;2023-07-20T10:33:57;24.50;76.30
8408;DHT22;4241;48.452;9.216;2023-07-20T10:36:27;24.50;76.80
8408;DHT22;4241;48.452;9.216;2023-07-20T10:38:56;24.60;77.80
8408;DHT22;4241;48.452;9.216;2023-07-20T10:41:28;24.80;74.00
8408;DHT22;4241;48.452;9.216;2023-07-20T10:44:00;25.00;70.00
8408;DHT22;4241;48.452;9.216;2023-07-20T10:46:34;25.20;71.00
8408;DHT22;4241;48.452;9.216;2023-07-20T10:49:03;25.40;73.30
8408;DHT22;4241;48.452;9.216;2023-07-20T10:51:31;25.70;70.20
8408;DHT22;4241;48.452;9.216;2023-07-20T10:54:07;26.00;70.90
8408;DHT22;4241;48.452;9.216;2023-07-20T10:56:34;26.00;68.30
8408;DHT22;4241;48.452;9.216;2023-07-20T11:01:29;25.90;67.20
8408;DHT22;4241;48.452;9.216;2023-07-20T11:03:58;25.90;69.80
8408;DHT22;4241;48.452;9.216;2023-07-20T11:06:33;25.90;69.80
8408;DHT22;4241;48.452;9.216;2023-07-20T11:09:09;26.30;68.70
8408;DHT22;4241;48.452;9.216;2023-07-20T11:11:37;26.40;66.40
8408;DHT22;4241;48.452;9.216;2023-07-20T11:14:06;26.60;66.00
8408;DHT22;4241;48.452;9.216;2023-07-20T11:16:37;26.80;65.90
8408;DHT22;4241;48.452;9.216;2023-07-20T11:19:05;26.80;66.30
8408;DHT22;4241;48.452;9.216;2023-07-20T11:21:37;26.80;63.10
8408;DHT22;4241;48.452;9.216;2023-07-20T11:24:05;26.80;63.40
8408;DHT22;4241;48.452;9.216;2023-07-20T11:26:45;26.80;64.30
8408;DHT22;4241;48.452;9.216;2023-07-20T11:29:12;26.90;64.40
8408;DHT22;4241;48.452;9.216;2023-07-20T11:31:40;26.70;60.00
8408;DHT22;4241;48.452;9.216;2023-07-20T11:34:09;26.70;61.20
8408;DHT22;4241;48.452;9.216;2023-07-20T11:36:36;26.80;62.40
8408;DHT22;4241;48.452;9.216;2023-07-20T11:39:04;27.00;62.60
8408;DHT22;4241;48.452;9.216;2023-07-20T11:44:02;27.00;61.00
8408;DHT22;4241;48.452;9.216;2023-07-20T11:48:57;27.40;60.00
8408;DHT22;4241;48.452;9.216;2023-07-20T11:51:25;27.70;59.50
8408;DHT22;4241;48.452;9.216;2023-07-20T11:53:53;27.70;59.80
8408;DHT22;4241;48.452;9.216;2023-07-20T11:56:19;27.90;58.50
8408;DHT22;4241;48.452;9.216;2023-07-20T11:58:46;28.00;57.40
8408;DHT22;4241;48.452;9.216;2023-07-20T12:01:15;28.30;58.30
8408;DHT22;4241;48.452;9.216;2023-07-20T12:03:42;28.20;56.90
8408;DHT22;4241;48.452;9.216;2023-07-20T12:06:10;28.20;58.40
8408;DHT22;4241;48.452;9.216;2023-07-20T12:08:41;28.10;55.30
8408;DHT22;4241;48.452;9.216;2023-07-20T12:11:08;28.20;56.20
8408;DHT22;4241;48.452;9.216;2023-07-20T12:13:36;28.10;56.60
8408;DHT22;4241;48.452;9.216;2023-07-20T12:16:10;28.20;57.00
8408;DHT22;4241;48.452;9.216;2023-07-20T12:18:39;28.20;56.70
8408;DHT22;4241;48.452;9.216;2023-07-20T12:21:07;28.20;57.30
8408;DHT22;4241;48.452;9.216;2023-07-20T12:23:38;27.90;54.60
8408;DHT22;4241;48.452;9.216;2023-07-20T12:26:09;27.80;54.10
8408;DHT22;4241;48.452;9.216;2023-07-20T12:28:39;27.60;58.60
8408;DHT22;4241;48.452;9.216;2023-07-20T12:31:07;27.80;58.30
8408;DHT22;4241;48.452;9.216;2023-07-20T12:36:04;28.20;56.10
8408;DHT22;4241;48.452;9.216;2023-07-20T12:38:31;28.40;56.30
8408;DHT22;4241;48.452;9.216;2023-07-20T12:41:01;28.50;55.40
8408;DHT22;4241;48.452;9.216;2023-07-20T12:43:28;28.50;53.60
8408;DHT22;4241;48.452;9.216;2023-07-20T12:45:55;28.50;54.20
8408;DHT22;4241;48.452;9.216;2023-07-20T12:48:22;28.80;56.20
8408;DHT22;4241;48.452;9.216;2023-07-20T12:50:49;28.60;54.50
8408;DHT22;4241;48.452;9.216;2023-07-20T12:53:17;28.60;55.20
8408;DHT22;4241;48.452;9.216;2023-07-20T12:55:44;28.90;57.20
8408;DHT22;4241;48.452;9.216;2023-07-20T12:58:11;29.20;52.80
8408;DHT22;4241;48.452;9.216;2023-07-20T13:00:38;29.20;54.10
8408;DHT22;4241;48.452;9.216;2023-07-20T13:03:05;29.20;51.70
8408;DHT22;4241;48.452;9.216;2023-07-20T13:05:34;29.00;53.80
8408;DHT22;4241;48.452;9.216;2023-07-20T13:08:01;28.90;53.50
8408;DHT22;4241;48.452;9.216;2023-07-20T13:10:30;29.20;55.40
8408;DHT22;4241;48.452;9.216;2023-07-20T13:12:57;29.30;50.80
8408;DHT22;4241;48.452;9.216;2023-07-20T13:15:28;29.30;51.10
8408;DHT22;4241;48.452;9.216;2023-07-20T13:17:56;29.50;52.90
8408;DHT22;4241;48.452;9.216;2023-07-20T13:20:24;29.40;50.20
8408;DHT22;4241;48.452;9.216;2023-07-20T13:22:51;29.40;50.60
8408;DHT22;4241;48.452;9.216;2023-07-20T13:25:18;29.20;50.70
8408;DHT22;4241;48.452;9.216;2023-07-20T13:27:46;29.50;53.30
8408;DHT22;4241;48.452;9.216;2023-07-20T13:30:13;29.40;52.30
8408;DHT22;4241;48.452;9.216;2023-07-20T13:32:42;29.10;53.00
8408;DHT22;4241;48.452;9.216;2023-07-20T13:35:09;29.20;53.90
8408;DHT22;4241;48.452;9.216;2023-07-20T13:37:36;29.00;54.40
8408;DHT22;4241;48.452;9.216;2023-07-20T13:40:03;29.00;54.70
8408;DHT22;4241;48.452;9.216;2023-07-20T13:42:31;28.90;50.80
8408;DHT22;4241;48.452;9.216;2023-07-20T13:44:59;28.80;53.30
8408;DHT22;4241;48.452;9.216;2023-07-20T13:47:26;28.70;53.70
8408;DHT22;4241;48.452;9.216;2023-07-20T13:49:53;28.70;53.60
8408;DHT22;4241;48.452;9.216;2023-07-20T13:52:21;28.80;54.80
8408;DHT22;4241;48.452;9.216;2023-07-20T13:54:48;29.20;53.20
8408;DHT22;4241;48.452;9.216;2023-07-20T13:57:15;29.30;52.00
8408;DHT22;4241;48.452;9.216;2023-07-20T13:59:42;29.50;52.50
8408;DHT22;4241;48.452;9.216;2023-07-20T14:02:10;29.20;51.20
8408;DHT22;4241;48.452;9.216;2023-07-20T14:04:37;29.20;52.00
8408;DHT22;4241;48.452;9.216;2023-07-20T14:07:04;29.20;53.00
8408;DHT22;4241;48.452;9.216;2023-07-20T14:09:31;28.70;51.20
8408;DHT22;4241;48.452;9.216;2023-07-20T14:11:58;28.60;49.60
8408;DHT22;4241;48.452;9.216;2023-07-20T14:14:25;28.70;51.10
8408;DHT22;4241;48.452;9.216;2023-07-20T14:16:52;28.70;51.40
8408;DHT22;4241;48.452;9.216;2023-07-20T14:19:20;29.00;51.10
8408;DHT22;4241;48.452;9.216;2023-07-20T14:21:47;29.00;51.30
8408;DHT22;4241;48.452;9.216;2023-07-20T14:24:14;29.20;50.90
8408;DHT22;4241;48.452;9.216;2023-07-20T14:26:40;29.20;48.80
8408;DHT22;4241;48.452;9.216;2023-07-20T14:29:07;29.10;49.30
8408;DHT22;4241;48.452;9.216;2023-07-20T14:31:34;28.80;51.00
8408;DHT22;4241;48.452;9.216;2023-07-20T14:34:01;28.70;51.40
8408;DHT22;4241;48.452;9.216;2023-07-20T14:36:29;29.00;49.80
8408;DHT22;4241;48.452;9.216;2023-07-20T14:38:56;29.20;50.70
8408;DHT22;4241;48.452;9.216;2023-07-20T14:41:22;29.20;51.10
8408;DHT22;4241;48.452;9.216;2023-07-20T14:43:49;29.60;49.60
8408;DHT22;4241;48.452;9.216;2023-07-20T14:46:16;29.90;49.50
8408;DHT22;4241;48.452;9.216;2023-07-20T14:48:43;30.00;49.00
8408;DHT22;4241;48.452;9.216;2023-07-20T14:51:09;30.00;50.00
8408;DHT22;4241;48.452;9.216;2023-07-20T14:53:38;30.10;50.20
8408;DHT22;4241;48.452;9.216;2023-07-20T14:56:04;30.20;49.70
8408;DHT22;4241;48.452;9.216;2023-07-20T14:58:33;30.20;49.10
8408;DHT22;4241;48.452;9.216;2023-07-20T15:01:00;31.00;45.80
8408;DHT22;4241;48.452;9.216;2023-07-20T15:03:26;30.40;46.20
8408;DHT22;4241;48.452;9.216;2023-07-20T15:05:53;30.60;47.20
8408;DHT22;4241;48.452;9.216;2023-07-20T15:08:21;30.40;46.50
8408;DHT22;4241;48.452;9.216;2023-07-20T15:10:50;30.40;46.70
8408;DHT22;4241;48.452;9.216;2023-07-20T15:15:43;29.70;48.40
8408;DHT22;4241;48.452;9.216;2023-07-20T15:18:10;29.70;48.80
8408;DHT22;4241;48.452;9.216;2023-07-20T15:20:37;29.90;45.50
8408;DHT22;4241;48.452;9.216;2023-07-20T15:23:04;29.70;49.40
8408;DHT22;4241;48.452;9.216;2023-07-20T15:25:31;29.90;49.30
8408;DHT22;4241;48.452;9.216;2023-07-20T15:27:59;30.00;50.50
8408;DHT22;4241;48.452;9.216;2023-07-20T15:30:27;30.40;48.10
8408;DHT22;4241;48.452;9.216;2023-07-20T15:32:54;30.70;48.90
8408;DHT22;4241;48.452;9.216;2023-07-20T15:35:22;31.00;48.30
8408;DHT22;4241;48.452;9.216;2023-07-20T15:37:49;31.00;46.10
8408;DHT22;4241;48.452;9.216;2023-07-20T15:40:16;30.90;44.60
8408;DHT22;4241;48.452;9.216;2023-07-20T15:42:42;31.10;48.40
8408;DHT22;4241;48.452;9.216;2023-07-20T15:45:10;31.00;46.60
8408;DHT22;4241;48.452;9.216;2023-07-20T15:47:37;31.00;45.40
8408;DHT22;4241;48.452;9.216;2023-07-20T15:50:05;31.00;46.20
8408;DHT22;4241;48.452;9.216;2023-07-20T15:52:32;30.60;43.10
8408;DHT22;4241;48.452;9.216;2023-07-20T15:54:59;30.70;46.70
8408;DHT22;4241;48.452;9.216;2023-07-20T15:57:25;30.70;45.50
8408;DHT22;4241;48.452;9.216;2023-07-20T15:59:52;30.80;46.60
8408;DHT22;4241;48.452;9.216;2023-07-20T16:02:20;31.00;47.00
8408;DHT22;4241;48.452;9.216;2023-07-20T16:04:47;30.90;47.20
8408;DHT22;4241;48.452;9.216;2023-07-20T16:07:14;30.90;47.70
8408;DHT22;4241;48.452;9.216;2023-07-20T16:09:41;30.90;43.80
8408;DHT22;4241;48.452;9.216;2023-07-20T16:12:08;31.00;47.50
8408;DHT22;4241;48.452;9.216;2023-07-20T16:14:35;31.10;44.90
8408;DHT22;4241;48.452;9.216;2023-07-20T16:17:03;31.40;47.60
8408;DHT22;4241;48.452;9.216;2023-07-20T16:19:31;31.30;47.90
8408;DHT22;4241;48.452;9.216;2023-07-20T16:21:58;31.50;45.60
8408;DHT22;4241;48.452;9.216;2023-07-20T16:24:25;31.10;43.90
8408;DHT22;4241;48.452;9.216;2023-07-20T16:26:52;31.10;46.50
8408;DHT22;4241;48.452;9.216;2023-07-20T16:31:49;31.60;46.50
8408;DHT22;4241;48.452;9.216;2023-07-20T16:34:16;31.80;47.00
8408;DHT22;4241;48.452;9.216;2023-07-20T16:36:44;31.70;46.60
8408;DHT22;4241;48.452;9.216;2023-07-20T16:39:11;31.90;45.60
8408;DHT22;4241;48.452;9.216;2023-07-20T16:41:38;32.20;47.50
8408;DHT22;4241;48.452;9.216;2023-07-20T16:44:04;32.30;44.20
8408;DHT22;4241;48.452;9.216;2023-07-20T16:46:33;32.30;42.70
8408;DHT22;4241;48.452;9.216;2023-07-20T16:49:00;32.30;42.80
8408;DHT22;4241;48.452;9.216;2023-07-20T16:51:31;32.70;46.40
8408;DHT22;4241;48.452;9.216;2023-07-20T16:53:59;32.70;46.80
8408;DHT22;4241;48.452;9.216;2023-07-20T16:56:26;32.70;43.40
8408;DHT22;4241;48.452;9.216;2023-07-20T16:58:53;32.70;43.90
8408;DHT22;4241;48.452;9.216;2023-07-20T17:01:20;32.80;44.70
8408;DHT22;4241;48.452;9.216;2023-07-20T17:03:48;32.80;42.20
8408;DHT22;4241;48.452;9.216;2023-07-20T17:06:15;32.80;44.00
8408;DHT22;4241;48.452;9.216;2023-07-20T17:08:42;32.90;41.90
8408;DHT22;4241;48.452;9.216;2023-07-20T17:11:10;32.90;43.20
8408;DHT22;4241;48.452;9.216;2023-07-20T17:13:37;32.90;43.70
8408;DHT22;4241;48.452;9.216;2023-07-20T17:16:04;33.30;41.60
8408;DHT22;4241;48.452;9.216;2023-07-20T17:18:31;33.20;42.30
8408;DHT22;4241;48.452;9.216;2023-07-20T17:20:59;33.30;43.00
8408;DHT22;4241;48.452;9.216;2023-07-20T17:23:26;33.30;44.10
8408;DHT22;4241;48.452;9.216;2023-07-20T17:25:55;33.10;44.30
8408;DHT22;4241;48.452;9.216;2023-07-20T17:28:24;32.90;43.40
8408;DHT22;4241;48.452;9.216;2023-07-20T17:30:59;32.90;43.70
8408;DHT22;4241;48.452;9.216;2023-07-20T17:33:27;32.80;42.30
8408;DHT22;4241;48.452;9.216;2023-07-20T17:35:53;32.70;42.70
8408;DHT22;4241;48.452;9.216;2023-07-20T17:38:20;32.60;42.40
8408;DHT22;4241;48.452;9.216;2023-07-20T17:40:48;32.00;42.40
8408;DHT22;4241;48.452;9.216;2023-07-20T17:43:14;31.60;43.80
8408;DHT22;4241;48.452;9.216;2023-07-20T17:45:43;31.40;44.80
8408;DHT22;4241;48.452;9.216;2023-07-20T17:48:10;31.40;45.10
8408;DHT22;4241;48.452;9.216;2023-07-20T17:50:36;30.20;45.30
8408;DHT22;4241;48.452;9.216;2023-07-20T17:53:03;29.70;46.50
8408;DHT22;4241;48.452;9.216;2023-07-20T17:55:30;29.00;46.30
8408;DHT22;4241;48.452;9.216;2023-07-20T17:57:57;28.60;48.20
8408;DHT22;4241;48.452;9.216;2023-07-20T18:02:52;27.70;50.00
8408;DHT22;4241;48.452;9.216;2023-07-20T18:05:19;27.50;50.40
8408;DHT22;4241;48.452;9.216;2023-07-20T18:07:46;27.20;51.60
8408;DHT22;4241;48.452;9.216;2023-07-20T18:12:40;26.60;53.40
8408;DHT22;4241;48.452;9.216;2023-07-20T18:15:08;26.40;53.60
8408;DHT22;4241;48.452;9.216;2023-07-20T18:20:04;25.90;52.10
8408;DHT22;4241;48.452;9.216;2023-07-20T18:22:32;25.70;53.20
8408;DHT22;4241;48.452;9.216;2023-07-20T18:32:21;24.90;51.60
8408;DHT22;4241;48.452;9.216;2023-07-20T18:37:16;24.60;52.30
8408;DHT22;4241;48.452;9.216;2023-07-20T18:47:07;24.20;57.10
8408;DHT22;4241;48.452;9.216;2023-07-20T18:52:02;24.00;56.80
8408;DHT22;4241;48.452;9.216;2023-07-20T18:54:30;23.70;56.10
8408;DHT22;4241;48.452;9.216;2023-07-20T18:56:57;23.70;57.20
8408;DHT22;4241;48.452;9.216;2023-07-20T19:06:47;23.30;57.40
8408;DHT22;4241;48.452;9.216;2023-07-20T19:09:14;23.10;57.90
8408;DHT22;4241;48.452;9.216;2023-07-20T19:11:42;23.20;59.10
8408;DHT22;4241;48.452;9.216;2023-07-20T19:16:36;23.00;58.80
8408;DHT22;4241;48.452;9.216;2023-07-20T19:26:25;22.70;59.70
8408;DHT22;4241;48.452;9.216;2023-07-20T19:28:53;22.60;59.80
8408;DHT22;4241;48.452;9.216;2023-07-20T19:31:20;22.60;61.40
8408;DHT22;4241;48.452;9.216;2023-07-20T19:33:47;22.60;62.30
8408;DHT22;4241;48.452;9.216;2023-07-20T19:36:14;22.50;60.90
8408;DHT22;4241;48.452;9.216;2023-07-20T19:38:41;22.20;61.60
8408;DHT22;4241;48.452;9.216;2023-07-20T19:43:35;22.30;61.60
8408;DHT22;4241;48.452;9.216;2023-07-20T19:46:03;22.10;61.90
8408;DHT22;4241;48.452;9.216;2023-07-20T19:50:57;22.00;63.10
8408;DHT22;4241;48.452;9.216;2023-07-20T19:53:24;21.80;67.10
8408;DHT22;4241;48.452;9.216;2023-07-20T19:55:56;21.60;66.20
8408;DHT22;4241;48.452;9.216;2023-07-20T19:58:23;21.80;70.00
8408;DHT22;4241;48.452;9.216;2023-07-20T20:00:50;21.40;68.90
8408;DHT22;4241;48.452;9.216;2023-07-20T20:03:18;21.40;68.80